createdAt,value
2022-12-27T00:13:58.445Z,7.2
2022-12-27T00:27:58.489Z,7.3
2022-12-27T00:41:58.486Z,7.2
2022-12-27T00:55:58.527Z,7.3
2022-12-27T01:09:58.500Z,7.2
2022-12-27T01:23:58.515Z,7.1
2022-12-27T01:37:58.506Z,7.0
2022-12-27T01:51:58.520Z,7.2
2022-12-27T02:05:58.537Z,7.2
2022-12-27T02:19:58.567Z,7.2
2022-12-27T02:33:58.607Z,7.2
2022-12-27T02:47:58.656Z,7.3
2022-12-27T03:01:58.868Z,7.4
2022-12-27T03:15:58.917Z,7.2
2022-12-27T03:29:58.849Z,7.3
2022-12-27T03:43:58.859Z,7.2
2022-12-27T03:57:58.968Z,7.1
2022-12-27T04:11:59.040Z,7.0
2022-12-27T04:25:59.064Z,7.0
2022-12-27T04:39:59.051Z,7.0
2022-12-27T04:53:59.102Z,7.2
2022-12-27T05:07:59.133Z,7.1
2022-12-27T05:21:59.113Z,7.0
2022-12-27T05:35:59.116Z,6.4
2022-12-27T05:49:59.141Z,5.8
2022-12-27T06:03:59.134Z,5.3
2022-12-27T06:17:59.158Z,4.6
2022-12-27T06:31:59.211Z,3.9
2022-12-27T06:46:59.173Z,3.7
2022-12-27T07:01:59.396Z,3.4
2022-12-27T07:16:59.319Z,3.4
2022-12-27T07:31:59.345Z,3.4
2022-12-27T07:46:59.286Z,3.7
2022-12-27T08:01:59.391Z,4.1
2022-12-27T08:16:59.379Z,5.8
2022-12-27T08:31:59.352Z,7.4
2022-12-27T08:46:59.354Z,8.1
2022-12-27T09:01:59.413Z,9.9
2022-12-27T09:16:59.377Z,10.2
2022-12-27T09:31:59.425Z,11.5
2022-12-27T09:47:59.474Z,12.0
2022-12-27T10:02:59.482Z,12.2
2022-12-27T10:18:59.573Z,11.6
2022-12-27T10:34:59.525Z,11.9
2022-12-27T10:49:59.538Z,12.3
2022-12-27T11:04:59.523Z,12.2
2022-12-27T11:18:59.544Z,12.6
2022-12-27T11:32:59.555Z,12.6
2022-12-27T11:47:59.631Z,12.5
2022-12-27T12:01:59.648Z,12.4
2022-12-27T12:15:59.629Z,12.5
2022-12-27T12:29:59.679Z,12.9
2022-12-27T12:43:59.784Z,13.1
2022-12-27T12:57:59.961Z,13.5
2022-12-27T13:12:00.002Z,13.5
2022-12-27T13:26:00.207Z,13.8
2022-12-27T13:40:00.263Z,14.1
2022-12-27T13:54:00.521Z,13.7
2022-12-27T14:08:00.575Z,13.8
2022-12-27T14:22:00.636Z,13.6
2022-12-27T14:36:00.723Z,12.8
2022-12-27T14:50:00.866Z,11.3
2022-12-27T15:04:00.878Z,10.3
2022-12-27T15:19:01.001Z,9.2
2022-12-27T15:33:01.129Z,8.0
2022-12-27T15:48:01.124Z,7.1
2022-12-27T16:03:01.337Z,6.7
2022-12-27T16:17:01.114Z,6.7
2022-12-27T16:30:01.161Z,6.4
2022-12-27T16:43:01.173Z,5.5
2022-12-27T16:56:01.166Z,5.1
2022-12-27T17:09:01.193Z,4.9
2022-12-27T17:22:01.184Z,4.9
2022-12-27T17:35:01.195Z,5.2
2022-12-27T17:48:01.242Z,6.9
2022-12-27T18:01:01.268Z,6.1
2022-12-27T18:14:01.264Z,6.7
2022-12-27T18:27:01.215Z,5.8
2022-12-27T18:40:01.360Z,5.3
2022-12-27T18:53:01.367Z,5.1
2022-12-27T19:06:01.317Z,5.1
2022-12-27T19:19:01.316Z,5.3
2022-12-27T19:32:01.369Z,5.7
2022-12-27T19:45:01.325Z,5.5
2022-12-27T19:58:01.421Z,5.7
2022-12-27T20:11:01.402Z,5.5
2022-12-27T20:24:01.394Z,5.3
2022-12-27T20:37:01.488Z,5.4
2022-12-27T20:50:01.491Z,5.6
2022-12-27T21:03:01.662Z,5.7
2022-12-27T21:16:01.755Z,5.5
2022-12-27T21:29:01.635Z,5.4
2022-12-27T21:42:01.669Z,5.1
2022-12-27T21:55:01.654Z,5.1
2022-12-27T22:08:01.834Z,5.0
2022-12-27T22:21:01.853Z,5.4
2022-12-27T22:34:01.841Z,5.6
2022-12-27T22:48:02.359Z,5.3
2022-12-27T23:01:02.353Z,5.1
2022-12-27T23:14:02.472Z,4.8
2022-12-27T23:27:02.458Z,4.7
2022-12-27T23:40:02.473Z,4.7
2022-12-27T23:53:02.484Z,5.5
